Weather at Elverum Starmoen Airport

Public forecast

Using degrees Celsius for public forecast. Weather courtesy of forecast.io.

Closest aviation weather report (METAR) to Elverum Starmoen Airport

Closest report is Oslo Gardermoen Airport, 44.5 nm (82.5 km) SSW. Retrieved 2021/06/15 14:20 UTC (31 minutes ago):

ENGM 151420Z VRB07KT CAVOK 19/02 Q1012 NOSIG

Closest aviation forecast (TAF) to Elverum Starmoen Airport

Closest forecast is Oslo Gardermoen Airport, 44.5 nm (82.5 km) SSW. Retrieved 2021/06/15 12:57 UTC (2 hours ago):

TAF ENGM 151100Z 1512/1612 28012KT CAVOK PROB30 TEMPO 1512/1516 29015G25KT BECMG 1518/1520 VRB03KT BECMG 1608/1611 19012KT